Time;durP1;ratioP1;P1;durP2;ratioP2;P2;SDS_P1;SDS_P2;PMS_P1;PMS_P2;Temp;Humidity;BMP_temperature;BMP_pressure;BME280_temperature;BME280_humidity;BME280_pressure;Samples;Min_cycle;Max_cycle;Signal;HPM_P1;HPM_P2
2021/11/15 00:01:45;;;;;;;20.20;9.82;;;;;;;7.78;86.73;99338.47;5051210;28;20033;-71
2021/11/15 00:04:14;;;;;;;21.90;10.23;;;;;;;7.69;86.82;99329.56;5032942;28;20022;-71
2021/11/15 00:06:39;;;;;;;26.80;10.52;;;;;;;7.84;85.40;99336.94;5048287;28;20029;-71
2021/11/15 00:09:06;;;;;;;22.60;10.45;;;;;;;7.59;86.21;99299.28;5051769;28;20135;-72
2021/11/15 00:11:32;;;;;;;18.98;9.25;;;;;;;7.79;85.62;99333.91;5052760;28;20525;-73
2021/11/15 00:13:57;;;;;;;21.02;9.43;;;;;;;7.75;86.25;99338.78;5034452;28;20108;-72
2021/11/15 00:16:23;;;;;;;19.13;9.52;;;;;;;7.83;85.85;99336.09;5052356;28;20023;-72
2021/11/15 00:18:48;;;;;;;20.25;8.98;;;;;;;7.63;84.97;99314.09;5052183;28;20029;-73
2021/11/15 00:21:14;;;;;;;21.98;10.00;;;;;;;7.67;85.23;99323.50;5051376;28;20060;-72
2021/11/15 00:23:39;;;;;;;19.83;8.85;;;;;;;7.63;84.83;99319.47;5042990;28;20029;-72
2021/11/15 00:26:05;;;;;;;21.83;10.55;;;;;;;7.65;85.31;99324.66;5052308;28;20036;-72
2021/11/15 00:28:30;;;;;;;19.85;9.23;;;;;;;7.75;85.54;99341.47;5052134;28;20068;-73
2021/11/15 00:30:56;;;;;;;18.75;8.60;;;;;;;7.78;85.47;99338.47;5052017;28;20159;-72
2021/11/15 00:33:21;;;;;;;20.45;8.77;;;;;;;7.71;84.67;99315.94;5051985;28;20033;-72
2021/11/15 00:35:46;;;;;;;18.30;8.82;;;;;;;7.73;84.96;99323.81;5052384;28;20024;-72
2021/11/15 00:38:12;;;;;;;21.83;8.93;;;;;;;7.75;85.31;99338.78;5048905;28;20032;-72
2021/11/15 00:40:37;;;;;;;19.23;9.13;;;;;;;7.78;84.97;99341.16;5028874;28;20020;-72
2021/11/15 00:43:04;;;;;;;24.67;10.00;;;;;;;7.80;84.50;99336.44;5034067;28;20024;-73
2021/11/15 00:45:30;;;;;;;21.63;10.82;;;;;;;7.77;85.18;99354.78;5051151;28;20033;-72
2021/11/15 00:47:55;;;;;;;22.42;9.98;;;;;;;7.67;84.29;99315.41;5051917;28;20052;-72
2021/11/15 00:50:22;;;;;;;20.50;8.63;;;;;;;7.80;84.30;99341.81;5043692;28;20409;-72
2021/11/15 00:52:49;;;;;;;20.58;9.40;;;;;;;7.72;84.62;99339.13;5051966;28;20021;-72
2021/11/15 00:55:15;;;;;;;18.42;9.10;;;;;;;7.72;85.47;99343.69;5026818;28;20486;-73
2021/11/15 00:57:40;;;;;;;21.80;9.45;;;;;;;7.60;85.57;99330.59;5055782;28;20033;-72
2021/11/15 01:00:09;;;;;;;20.25;9.80;;;;;;;7.63;84.35;99324.03;5055561;28;20032;-72
2021/11/15 01:02:35;;;;;;;21.48;9.38;;;;;;;7.72;84.78;99343.69;5046905;28;20467;-72
2021/11/15 01:05:00;;;;;;;25.00;9.88;;;;;;;7.55;85.32;99318.66;5055729;28;20112;-72
2021/11/15 01:07:25;;;;;;;25.50;9.88;;;;;;;7.64;85.10;99341.84;5037984;28;20115;-72
2021/11/15 01:09:51;;;;;;;20.63;9.55;;;;;;;7.62;85.28;99333.97;5055378;28;20483;-72
2021/11/15 01:12:16;;;;;;;20.65;10.10;;;;;;;7.46;85.84;99318.66;5055597;28;20548;-73
2021/11/15 01:14:42;;;;;;;20.92;10.38;;;;;;;7.58;86.04;99340.69;5055858;28;20055;-72
2021/11/15 01:17:08;;;;;;;19.65;9.68;;;;;;;7.54;85.96;99325.88;5038250;28;20021;-72
2021/11/15 01:19:33;;;;;;;25.50;10.30;;;;;;;7.60;86.24;99335.16;5055514;28;20040;-72
2021/11/15 01:21:59;;;;;;;22.88;9.68;;;;;;;7.61;85.15;99334.13;5037908;28;20071;-73
2021/11/15 01:24:25;;;;;;;19.55;10.13;;;;;;;7.52;86.10;99332.44;5055789;28;20063;-73
2021/11/15 01:26:50;;;;;;;20.25;9.43;;;;;;;7.58;85.85;99348.78;5055699;28;20060;-72
2021/11/15 01:29:15;;;;;;;21.50;9.52;;;;;;;7.44;86.37;99322.53;5050683;28;20021;-72
2021/11/15 01:31:41;;;;;;;26.45;9.73;;;;;;;7.62;85.05;99338.47;5055655;28;20533;-72
2021/11/15 01:34:07;;;;;;;19.83;10.27;;;;;;;7.57;85.53;99339.03;5056764;28;20021;-72
2021/11/15 01:36:33;;;;;;;23.33;11.48;;;;;;;7.57;85.98;99330.94;5054007;28;20021;-72
2021/11/15 01:38:59;;;;;;;21.90;9.98;;;;;;;7.58;85.67;99327.22;5038917;28;20035;-72
2021/11/15 01:41:24;;;;;;;25.55;11.27;;;;;;;7.60;85.38;99340.53;5058614;28;20108;-72
2021/11/15 01:43:50;;;;;;;22.67;9.77;;;;;;;7.57;85.74;99327.38;5056994;28;20032;-73
2021/11/15 01:46:15;;;;;;;23.13;10.30;;;;;;;7.45;85.13;99310.75;5055412;28;20455;-73
2021/11/15 01:48:41;;;;;;;22.05;9.55;;;;;;;7.51;85.21;99317.31;5054722;28;20032;-72
2021/11/15 01:51:06;;;;;;;24.83;10.30;;;;;;;7.57;85.65;99330.94;5050743;28;20100;-72
2021/11/15 01:53:31;;;;;;;25.40;10.23;;;;;;;7.52;85.72;99327.91;5037172;28;20028;-72
2021/11/15 01:55:57;;;;;;;21.67;9.55;;;;;;;7.56;85.73;99326.56;5055160;28;20103;-72
2021/11/15 01:58:22;;;;;;;20.85;10.40;;;;;;;7.51;86.77;99326.22;5054813;28;20052;-72
2021/11/15 02:00:51;;;;;;;21.92;10.57;;;;;;;7.52;86.21;99324.38;5036668;28;20033;-72
2021/11/15 02:03:18;;;;;;;24.58;10.68;;;;;;;7.41;85.98;99315.66;5054183;28;20033;-73
2021/11/15 02:05:44;;;;;;;21.15;9.77;;;;;;;7.51;86.33;99323.53;5054402;28;20032;-72
2021/11/15 02:08:10;;;;;;;20.75;9.63;;;;;;;7.48;86.05;99318.50;5053331;28;20033;-72
2021/11/15 02:10:35;;;;;;;25.02;10.70;;;;;;;7.33;86.04;99309.44;5054605;28;20029;-73
2021/11/15 02:13:01;;;;;;;22.52;10.18;;;;;;;7.48;86.01;99331.94;5055004;28;20086;-72
2021/11/15 02:15:27;;;;;;;23.50;10.35;;;;;;;7.45;86.20;99319.66;5054834;28;20443;-72
2021/11/15 02:17:52;;;;;;;22.90;9.90;;;;;;;7.42;86.82;99324.56;5053209;28;20036;-72
2021/11/15 02:20:22;;;;;;;23.15;10.50;;;;;;;7.41;86.05;99321.03;5046280;28;20025;-72
2021/11/15 02:22:49;;;;;;;23.63;10.75;;;;;;;7.37;86.19;99308.91;5054588;28;20439;-72
2021/11/15 02:25:21;;;;;;;24.50;10.07;;;;;;;7.45;86.10;99316.16;5053237;28;20079;-72
2021/11/15 02:27:47;;;;;;;21.20;9.43;;;;;;;7.35;86.71;99313.63;5054346;28;20031;-72
2021/11/15 02:30:19;;;;;;;25.80;10.13;;;;;;;7.33;86.90;99304.03;5052514;28;20146;-72
2021/11/15 02:32:46;;;;;;;22.60;10.80;;;;;;;7.28;87.02;99307.22;5041127;28;20048;-72
2021/11/15 02:35:12;;;;;;;19.80;9.75;;;;;;;7.23;87.04;99294.31;5054293;28;20033;-72
2021/11/15 02:37:46;;;;;;;20.27;9.52;;;;;;;7.29;86.79;99303.56;5054236;28;20025;-73
2021/11/15 02:40:13;;;;;;;18.60;9.60;;;;;;;7.33;86.59;99317.50;5054023;28;20082;-72
2021/11/15 02:42:40;;;;;;;20.20;9.90;;;;;;;7.35;86.40;99323.56;5054032;28;20079;-72
2021/11/15 02:45:08;;;;;;;21.67;10.35;;;;;;;7.32;86.37;99318.53;5054199;28;20052;-73
2021/11/15 02:47:34;;;;;;;20.48;9.77;;;;;;;7.23;86.93;99314.97;5032561;28;20022;-72
2021/11/15 02:50:00;;;;;;;22.25;9.75;;;;;;;7.28;87.27;99318.00;5037396;28;20029;-72
2021/11/15 02:52:26;;;;;;;23.33;9.50;;;;;;;7.14;87.32;99306.06;5054317;28;20146;-73
2021/11/15 02:54:51;;;;;;;18.65;9.10;;;;;;;7.01;87.75;99303.88;5036288;28;20028;-72
2021/11/15 02:57:19;;;;;;;22.60;10.13;;;;;;;7.16;88.37;99322.06;5032481;28;20025;-73
2021/11/15 02:59:45;;;;;;;23.35;10.48;;;;;;;7.15;88.13;99332.00;5019074;28;20032;-72
2021/11/15 03:02:11;;;;;;;21.33;9.65;;;;;;;7.16;87.88;99330.97;5053161;28;20035;-72
2021/11/15 03:04:37;;;;;;;21.20;10.23;;;;;;;7.14;87.54;99319.53;5038256;28;20029;-72
2021/11/15 03:07:03;;;;;;;20.20;9.52;;;;;;;7.09;87.73;99324.56;5040285;28;20382;-72
2021/11/15 03:09:29;;;;;;;21.73;9.77;;;;;;;7.09;88.07;99326.44;5053563;28;20029;-72
2021/11/15 03:11:54;;;;;;;22.55;9.80;;;;;;;7.11;88.00;99322.56;5048622;28;20024;-72
2021/11/15 03:14:20;;;;;;;16.75;8.73;;;;;;;7.04;87.10;99313.47;5054208;28;20031;-72
2021/11/15 03:16:45;;;;;;;18.50;9.18;;;;;;;7.05;88.04;99325.94;5054471;28;20029;-73
2021/11/15 03:19:11;;;;;;;24.23;9.77;;;;;;;6.92;88.08;99304.06;5048512;28;20033;-73
2021/11/15 03:21:36;;;;;;;19.13;9.27;;;;;;;6.86;88.38;99305.56;5053573;28;20610;-73
2021/11/15 03:24:02;;;;;;;19.33;9.05;;;;;;;6.92;88.40;99314.84;5035190;28;20078;-72
2021/11/15 03:26:27;;;;;;;16.90;8.50;;;;;;;6.96;88.26;99324.25;5053149;28;20032;-72
2021/11/15 03:28:54;;;;;;;21.38;9.05;;;;;;;6.89;88.86;99337.53;5052506;28;20033;-72
2021/11/15 03:31:28;;;;;;;16.98;8.18;;;;;;;6.83;88.91;99313.13;5036008;28;20117;-72
2021/11/15 03:33:58;;;;;;;16.48;8.13;;;;;;;6.95;88.17;99320.72;5035098;28;20032;-72
2021/11/15 03:36:23;;;;;;;20.45;7.88;;;;;;;6.99;87.48;99315.81;5053468;28;20765;-72
2021/11/15 03:38:51;;;;;;;16.55;7.70;;;;;;;6.99;87.60;99318.50;5052239;28;20108;-72
2021/11/15 03:41:18;;;;;;;17.73;8.85;;;;;;;7.02;86.79;99321.72;5053199;28;20031;-72
2021/11/15 03:43:43;;;;;;;17.10;7.55;;;;;;;6.99;87.20;99318.50;5052724;28;20029;-72
2021/11/15 03:46:09;;;;;;;17.63;8.23;;;;;;;6.94;87.70;99320.88;5052695;28;20382;-72
2021/11/15 03:48:34;;;;;;;17.15;8.55;;;;;;;6.85;87.80;99313.81;5034354;28;20040;-72
2021/11/15 03:51:00;;;;;;;17.10;7.90;;;;;;;6.88;87.76;99313.47;5051294;28;20017;-72
2021/11/15 03:53:32;;;;;;;15.40;7.53;;;;;;;6.99;87.04;99311.28;5034941;28;20033;-73
2021/11/15 03:55:58;;;;;;;13.70;7.95;;;;;;;6.85;86.88;99292.28;5052823;28;20016;-73
2021/11/15 03:58:24;;;;;;;16.70;8.23;;;;;;;6.89;87.72;99316.00;5033230;28;20030;-72
2021/11/15 04:00:49;;;;;;;16.05;7.90;;;;;;;6.93;87.43;99319.19;5032321;28;20021;-72
2021/11/15 04:03:29;;;;;;;14.25;7.22;;;;;;;6.78;87.34;99298.31;5052710;28;20437;-72
2021/11/15 04:05:59;;;;;;;15.90;7.43;;;;;;;6.96;87.16;99326.94;5049895;28;20033;-72
2021/11/15 04:08:24;;;;;;;17.33;7.60;;;;;;;6.83;87.09;99311.28;5034493;28;20498;-72
2021/11/15 04:10:51;;;;;;;18.25;7.95;;;;;;;6.91;87.02;99321.22;5052523;28;20032;-72
2021/11/15 04:13:18;;;;;;;14.18;7.80;;;;;;;6.89;86.87;99316.00;5052250;28;20029;-72
2021/11/15 04:15:45;;;;;;;18.92;7.80;;;;;;;6.93;87.10;99320.03;5052732;28;20024;-72
2021/11/15 04:18:12;;;;;;;15.40;7.22;;;;;;;6.76;87.77;99305.75;5049912;28;20024;-72
2021/11/15 04:20:40;;;;;;;17.33;9.02;;;;;;;6.80;88.48;99307.06;5030270;28;20026;-72
2021/11/15 04:23:06;;;;;;;17.52;8.18;;;;;;;6.85;87.67;99305.75;5035796;28;20558;-73
2021/11/15 04:25:31;;;;;;;14.52;8.00;;;;;;;6.80;88.21;99309.75;5058478;28;20033;-74
2021/11/15 04:27:57;;;;;;;15.38;7.78;;;;;;;6.72;88.21;99293.63;5057419;28;20028;-75
2021/11/15 04:30:22;;;;;;;15.82;7.68;;;;;;;6.72;88.92;99309.75;5059252;28;20110;-73
2021/11/15 04:32:49;;;;;;;13.57;7.32;;;;;;;6.80;88.59;99314.31;5073522;28;20051;-73
2021/11/15 04:35:34;;;;;;;16.58;8.10;;;;;;;6.67;88.60;99312.09;5077685;28;20033;-74
2021/11/15 04:38:08;;;;;;;17.35;8.32;;;;;;;6.63;88.24;99283.88;5074602;28;20465;-73
2021/11/15 04:40:34;;;;;;;12.23;7.18;;;;;;;6.73;88.03;99305.22;5059305;28;20037;-73
2021/11/15 04:43:00;;;;;;;15.27;7.93;;;;;;;6.79;88.35;99313.47;5064240;28;20024;-72
2021/11/15 04:45:25;;;;;;;16.95;8.23;;;;;;;6.68;88.65;99294.97;5067293;28;20056;-73
2021/11/15 04:47:51;;;;;;;15.00;7.88;;;;;;;6.69;88.89;99304.72;5055363;28;20021;-72
2021/11/15 04:50:17;;;;;;;16.23;7.70;;;;;;;6.72;88.59;99309.75;5050116;28;20025;-74
2021/11/15 04:52:43;;;;;;;16.25;8.85;;;;;;;6.70;88.70;99292.09;5066396;28;20088;-76
2021/11/15 04:55:11;;;;;;;16.65;8.20;;;;;;;6.79;87.72;99299.19;5065678;28;20028;-73
2021/11/15 04:57:37;;;;;;;15.38;7.90;;;;;;;6.77;88.01;99307.41;5064957;28;20032;-75
2021/11/15 05:00:17;;;;;;;19.42;9.02;;;;;;;6.74;88.69;99298.84;5047219;28;20033;-74
2021/11/15 05:02:47;;;;;;;18.00;8.60;;;;;;;6.80;88.35;99307.06;5042415;28;20434;-74
2021/11/15 05:05:13;;;;;;;20.95;8.85;;;;;;;6.91;88.11;99310.44;5033468;28;20017;-75
2021/11/15 05:07:39;;;;;;;14.90;7.60;;;;;;;6.84;87.43;99310.28;5044533;28;20020;-74
2021/11/15 05:10:05;;;;;;;15.57;7.28;;;;;;;6.76;87.35;99289.59;5053037;28;20479;-75
2021/11/15 05:12:35;;;;;;;16.90;7.07;;;;;;;6.77;87.45;99301.19;5033822;28;20108;-74
2021/11/15 05:15:01;;;;;;;17.92;7.15;;;;;;;6.79;87.42;99300.03;5033005;28;20025;-74
2021/11/15 05:17:26;;;;;;;14.13;7.47;;;;;;;6.83;87.62;99311.28;5045645;28;20028;-68
2021/11/15 05:19:51;;;;;;;15.75;7.25;;;;;;;6.82;87.02;99308.78;5046089;28;20121;-69
2021/11/15 05:22:17;;;;;;;14.68;7.05;;;;;;;6.84;87.41;99312.13;5051040;28;20100;-69
2021/11/15 05:24:42;;;;;;;15.32;7.35;;;;;;;6.81;87.67;99307.91;5040785;28;20055;-69
2021/11/15 05:27:07;;;;;;;15.25;6.97;;;;;;;6.77;88.21;99311.97;5058032;28;20470;-69
2021/11/15 05:29:32;;;;;;;13.30;6.88;;;;;;;6.77;87.95;99312.78;5073510;28;20039;-69
2021/11/15 05:31:58;;;;;;;15.60;7.45;;;;;;;6.78;87.92;99306.41;5060401;28;20082;-72
2021/11/15 05:34:23;;;;;;;14.85;6.90;;;;;;;6.75;87.75;99309.41;5037617;28;20498;-71
2021/11/15 05:36:48;;;;;;;14.57;6.78;;;;;;;6.69;87.88;99296.66;5064016;28;20020;-70
2021/11/15 05:39:14;;;;;;;13.82;6.82;;;;;;;6.75;87.23;99309.41;5059200;28;20067;-71
2021/11/15 05:41:39;;;;;;;15.10;7.38;;;;;;;6.76;87.73;99312.97;5055984;28;20058;-71
2021/11/15 05:44:05;;;;;;;14.57;7.15;;;;;;;6.57;87.49;99276.47;5062182;28;20098;-72
2021/11/15 05:46:31;;;;;;;14.00;6.78;;;;;;;6.77;87.80;99306.56;5059280;28;20658;-70
2021/11/15 05:48:56;;;;;;;13.00;6.35;;;;;;;6.63;88.14;99305.41;5058071;28;20039;-73
2021/11/15 05:51:21;;;;;;;14.63;6.65;;;;;;;6.78;88.12;99319.84;5049144;28;20104;-71
2021/11/15 05:53:47;;;;;;;14.25;6.43;;;;;;;6.69;88.08;99306.56;5051744;28;20108;-71
2021/11/15 05:56:13;;;;;;;16.00;6.72;;;;;;;6.86;87.39;99320.88;5052594;28;20036;-70
2021/11/15 05:58:38;;;;;;;12.77;6.40;;;;;;;6.84;86.81;99318.34;5049761;28;20123;-72
2021/11/15 06:01:04;;;;;;;16.95;7.28;;;;;;;6.79;86.17;99321.53;5056398;28;20486;-72
2021/11/15 06:03:29;;;;;;;13.30;6.63;;;;;;;6.71;86.54;99324.22;5054226;28;20401;-71
2021/11/15 06:05:55;;;;;;;12.85;6.57;;;;;;;6.54;87.42;99315.28;5044993;28;20033;-70
2021/11/15 06:08:20;;;;;;;11.77;6.47;;;;;;;6.72;86.87;99338.50;5055141;28;20505;-70
2021/11/15 06:10:46;;;;;;;14.05;6.00;;;;;;;6.76;86.84;99343.38;5055277;28;20017;-75
2021/11/15 06:13:12;;;;;;;13.60;6.68;;;;;;;6.65;86.91;99318.66;5055728;28;20036;-74
2021/11/15 06:15:37;;;;;;;14.50;6.70;;;;;;;6.49;88.47;99322.16;5040630;28;20175;-73
2021/11/15 06:18:02;;;;;;;14.32;7.20;;;;;;;6.51;88.76;99326.34;5051102;28;20029;-74
2021/11/15 06:20:28;;;;;;;12.02;6.32;;;;;;;6.53;88.17;99328.91;5051832;28;20033;-74
2021/11/15 06:22:54;;;;;;;13.35;6.45;;;;;;;6.54;88.82;99344.00;5037879;28;20025;-74
2021/11/15 06:25:19;;;;;;;15.85;6.85;;;;;;;6.38;89.15;99328.69;5055422;28;20029;-74
2021/11/15 06:27:45;;;;;;;14.88;7.00;;;;;;;6.43;89.05;99330.88;5054683;28;20082;-74
2021/11/15 06:30:14;;;;;;;13.05;6.35;;;;;;;6.50;89.67;99340.81;5054766;28;20017;-74
2021/11/15 06:32:41;;;;;;;12.10;6.35;;;;;;;6.46;89.19;99327.84;5034863;28;20025;-74
2021/11/15 06:35:07;;;;;;;12.70;5.90;;;;;;;6.48;90.08;99342.81;5052467;28;20517;-75
2021/11/15 06:37:32;;;;;;;16.05;6.28;;;;;;;6.49;89.93;99346.34;5038317;28;20035;-74
2021/11/15 06:39:58;;;;;;;16.42;6.65;;;;;;;6.41;90.13;99341.78;5053703;28;20025;-75
2021/11/15 06:42:23;;;;;;;14.15;7.15;;;;;;;6.41;90.00;99338.25;5047450;28;20155;-74
2021/11/15 06:44:49;;;;;;;15.63;6.15;;;;;;;6.51;89.53;99347.03;5054450;28;20036;-73
2021/11/15 06:47:14;;;;;;;15.32;7.05;;;;;;;6.60;89.41;99337.97;5053302;28;20082;-74
2021/11/15 06:49:40;;;;;;;13.35;6.07;;;;;;;6.66;88.92;99358.00;5055054;28;20028;-75
2021/11/15 06:52:06;;;;;;;13.95;6.45;;;;;;;6.71;88.27;99358.34;5038069;28;20020;-74
2021/11/15 06:54:31;;;;;;;11.30;5.68;;;;;;;6.68;88.00;99340.69;5049467;28;20542;-74
2021/11/15 06:56:56;;;;;;;14.48;6.72;;;;;;;6.51;88.71;99325.53;5045091;28;20056;-76
2021/11/15 06:59:22;;;;;;;13.75;6.20;;;;;;;6.58;88.13;99334.63;5036636;28;20061;-74
2021/11/15 07:01:47;;;;;;;14.57;6.32;;;;;;;6.62;87.88;99338.63;5054436;28;20060;-75
2021/11/15 07:04:13;;;;;;;12.40;6.30;;;;;;;6.77;87.76;99357.69;5036473;28;20383;-75
2021/11/15 07:06:41;;;;;;;11.00;5.60;;;;;;;6.70;88.04;99338.66;5050107;28;20051;-74
2021/11/15 07:09:07;;;;;;;12.27;6.15;;;;;;;6.77;88.64;99350.44;5056176;28;20449;-75
2021/11/15 07:11:34;;;;;;;14.93;6.25;;;;;;;6.65;88.74;99349.06;5042466;28;20033;-74
2021/11/15 07:14:00;;;;;;;12.85;6.88;;;;;;;6.56;89.13;99337.47;5032914;28;20025;-74
2021/11/15 07:16:25;;;;;;;12.80;6.57;;;;;;;6.62;88.43;99333.25;5053169;28;20440;-74
2021/11/15 07:18:54;;;;;;;12.98;6.25;;;;;;;6.45;89.44;99321.66;5036613;28;20051;-76
2021/11/15 07:21:20;;;;;;;15.40;6.70;;;;;;;6.60;89.17;99332.59;5054062;28;20024;-74
2021/11/15 07:23:46;;;;;;;11.10;5.93;;;;;;;6.55;89.30;99330.41;5050316;28;20082;-74
2021/11/15 07:26:12;;;;;;;15.57;6.72;;;;;;;6.58;89.76;99343.53;5049777;28;20028;-71
2021/11/15 07:28:38;;;;;;;13.75;6.10;;;;;;;6.59;89.68;99352.41;5053215;28;20107;-73
2021/11/15 07:31:03;;;;;;;11.40;6.05;;;;;;;6.57;89.18;99340.97;5053500;28;20037;-74
2021/11/15 07:33:29;;;;;;;12.32;6.15;;;;;;;6.70;89.13;99354.78;5051672;28;20491;-74
2021/11/15 07:35:54;;;;;;;12.30;5.45;;;;;;;6.69;88.68;99339.66;5053530;28;20478;-73
2021/11/15 07:38:20;;;;;;;13.73;5.43;;;;;;;6.75;88.83;99354.31;5034605;28;20040;-72
2021/11/15 07:40:46;;;;;;;11.38;5.75;;;;;;;6.79;89.14;99343.06;5047469;28;20151;-73
2021/11/15 07:43:12;;;;;;;11.88;5.55;;;;;;;6.73;89.33;99343.72;5053057;28;20059;-74
2021/11/15 07:45:38;;;;;;;12.63;6.75;;;;;;;6.88;88.83;99356.50;5053466;28;20061;-73
2021/11/15 07:48:04;;;;;;;13.25;5.93;;;;;;;6.84;88.56;99353.31;5053582;28;20457;-69
2021/11/15 07:50:29;;;;;;;11.82;5.60;;;;;;;6.68;88.79;99338.00;5041725;28;20573;-72
2021/11/15 07:52:54;;;;;;;13.32;6.63;;;;;;;6.79;89.29;99358.34;5052746;28;20115;-72
2021/11/15 07:55:20;;;;;;;13.25;5.95;;;;;;;6.82;89.75;99362.56;5053372;28;20518;-72
2021/11/15 07:57:46;;;;;;;11.02;5.45;;;;;;;6.73;88.68;99367.94;5052936;28;20382;-72
2021/11/15 08:00:15;;;;;;;14.00;5.85;;;;;;;6.79;89.85;99372.63;5050787;28;20025;-73
2021/11/15 08:02:41;;;;;;;12.60;6.25;;;;;;;6.76;89.67;99381.03;5047446;28;20156;-71
2021/11/15 08:05:09;;;;;;;13.18;5.78;;;;;;;6.82;89.42;99378.69;5051580;28;20533;-72
2021/11/15 08:07:35;;;;;;;15.10;6.18;;;;;;;6.92;88.86;99376.69;5052790;28;20364;-73
2021/11/15 08:10:03;;;;;;;14.88;6.25;;;;;;;6.77;88.49;99355.81;5034840;28;20027;-72
2021/11/15 08:12:38;;;;;;;12.35;6.22;;;;;;;6.92;88.80;99391.00;5052228;28;20025;-72
2021/11/15 08:15:07;;;;;;;18.60;7.07;;;;;;;6.94;88.19;99388.13;5052523;28;20453;-73
2021/11/15 08:17:32;;;;;;;;;;;;;;;6.88;88.58;99380.72;5053044;28;20487;-74
2021/11/15 08:19:58;;;;;;;19.35;6.45;;;;;;;6.83;88.24;99370.44;5052730;28;19987;-74
2021/11/15 08:22:23;;;;;;;14.40;6.72;;;;;;;6.83;88.06;99365.06;5052594;28;20025;-73
2021/11/15 08:25:00;;;;;;;11.27;6.00;;;;;;;6.96;88.36;99380.72;5059803;28;20020;-74
2021/11/15 08:27:27;;;;;;;13.73;5.80;;;;;;;6.95;88.54;99371.81;5046066;28;20021;-75
2021/11/15 08:29:53;;;;;;;13.55;6.20;;;;;;;6.92;88.14;99363.25;5034861;28;20060;-74
2021/11/15 08:32:24;;;;;;;14.23;5.90;;;;;;;6.91;88.46;99356.16;5053320;28;20042;-74
2021/11/15 08:34:50;;;;;;;12.77;5.57;;;;;;;6.93;88.04;99364.91;5053352;28;20387;-74
2021/11/15 08:37:16;;;;;;;10.63;5.47;;;;;;;6.99;88.55;99375.00;5052956;28;20104;-74
2021/11/15 08:39:41;;;;;;;11.43;5.78;;;;;;;7.07;87.68;99366.94;5048222;28;20079;-74
2021/11/15 08:42:09;;;;;;;10.90;5.63;;;;;;;7.01;88.22;99373.84;5052386;28;20029;-74
2021/11/15 08:44:38;;;;;;;13.82;5.43;;;;;;;7.06;88.95;99378.72;5053080;28;20056;-74
2021/11/15 08:47:03;;;;;;;14.57;7.72;;;;;;;7.10;88.16;99377.41;5052321;28;20171;-74
2021/11/15 08:49:30;;;;;;;14.75;6.10;;;;;;;7.05;87.07;99368.97;5053061;28;20075;-74
2021/11/15 08:51:56;;;;;;;12.35;6.38;;;;;;;7.12;86.39;99367.28;5052779;28;20044;-75
2021/11/15 08:54:24;;;;;;;15.25;6.55;;;;;;;7.08;86.88;99371.34;5052370;28;20399;-73
2021/11/15 08:56:52;;;;;;;11.23;6.55;;;;;;;7.13;87.54;99381.59;5050565;28;20482;-74
2021/11/15 08:59:19;;;;;;;12.83;6.37;;;;;;;7.09;88.31;99388.31;5052595;28;20082;-74
2021/11/15 09:01:45;;;;;;;12.63;5.90;;;;;;;7.05;88.74;99382.44;5051656;28;20056;-74
2021/11/15 09:04:11;;;;;;;14.25;6.22;;;;;;;6.92;88.41;99365.94;5051890;28;20025;-75
2021/11/15 09:06:37;;;;;;;12.82;5.82;;;;;;;7.11;87.84;99381.75;5052357;28;20095;-70
2021/11/15 09:09:04;;;;;;;13.65;6.82;;;;;;;7.14;88.21;99383.28;5052250;28;20067;-72
2021/11/15 09:11:31;;;;;;;11.32;5.40;;;;;;;7.18;87.91;99390.84;5050768;28;20454;-70
2021/11/15 09:13:57;;;;;;;15.40;6.28;;;;;;;7.20;87.71;99380.78;5046108;28;20029;-71
2021/11/15 09:16:23;;;;;;;11.82;5.88;;;;;;;7.19;88.01;99372.84;5052361;28;20447;-70
2021/11/15 09:18:50;;;;;;;10.50;5.60;;;;;;;7.15;87.76;99369.66;5037109;28;20037;-74
2021/11/15 09:21:16;;;;;;;11.45;5.72;;;;;;;7.25;87.47;99375.69;5055763;28;20083;-74
2021/11/15 09:23:43;;;;;;;10.20;5.80;;;;;;;7.21;87.74;99374.38;5053982;28;20371;-75
2021/11/15 09:26:12;;;;;;;13.32;5.90;;;;;;;7.17;87.54;99356.84;5051557;28;20056;-74
2021/11/15 09:28:38;;;;;;;11.70;5.82;;;;;;;7.40;87.13;99372.34;5054542;28;20498;-72
2021/11/15 09:31:06;;;;;;;12.63;5.82;;;;;;;7.45;86.42;99376.22;5051107;28;20385;-72
2021/11/15 09:33:32;;;;;;;16.75;6.40;;;;;;;7.17;86.54;99338.03;5140139;22;20041;-70
2021/11/15 09:35:58;;;;;;;11.52;5.47;;;;;;;7.33;86.12;99358.72;5070616;28;20099;-70
2021/11/15 09:38:24;;;;;;;13.95;6.05;;;;;;;7.43;85.82;99375.53;5067606;28;20020;-69
2021/11/15 09:40:56;;;;;;;13.75;6.57;;;;;;;7.29;85.90;99357.38;5068621;28;20409;-71
2021/11/15 09:43:23;;;;;;;11.63;5.65;;;;;;;7.29;86.64;99365.47;5074080;28;20044;-71
2021/11/15 09:45:48;;;;;;;12.25;6.22;;;;;;;7.31;86.38;99367.97;5075514;28;20052;-72
2021/11/15 09:48:13;;;;;;;16.58;7.45;;;;;;;7.31;85.52;99367.97;5075543;28;20485;-72
2021/11/15 09:50:39;;;;;;;12.85;5.88;;;;;;;7.57;85.08;99390.19;5075250;28;20031;-71
2021/11/15 09:53:06;;;;;;;13.52;6.43;;;;;;;7.65;84.94;99381.22;5075030;28;20024;-67
2021/11/15 09:55:32;;;;;;;13.07;6.32;;;;;;;7.67;84.71;99380.03;5074094;28;20031;-67
2021/11/15 09:57:59;;;;;;;14.30;5.93;;;;;;;7.70;84.98;99384.25;5073341;28;20035;-66
2021/11/15 10:00:25;;;;;;;10.85;5.80;;;;;;;7.65;84.82;99381.22;5068605;28;20040;-69
2021/11/15 10:02:51;;;;;;;13.15;6.63;;;;;;;7.73;84.00;99383.06;5070459;28;20102;-67
2021/11/15 10:05:18;;;;;;;11.93;6.10;;;;;;;7.32;84.39;99322.03;5076538;28;20028;-67
2021/11/15 10:07:55;;;;;;;13.25;6.30;;;;;;;7.57;85.05;99365.94;5081457;28;20086;-68
2021/11/15 10:10:38;;;;;;;15.10;5.90;;;;;;;7.60;85.28;99357.53;5055944;28;20056;-68
2021/11/15 10:13:18;;;;;;;16.60;6.72;;;;;;;7.64;85.64;99364.22;5075662;28;20056;-67
2021/11/15 10:16:06;;;;;;;12.55;6.00;;;;;;;7.75;84.63;99364.88;5069845;28;20105;-67
2021/11/15 10:18:57;;;;;;;13.15;6.72;;;;;;;7.78;85.02;99360.03;5074357;28;20027;-68
2021/11/15 10:21:29;;;;;;;16.77;6.95;;;;;;;7.73;84.99;99364.22;5070633;28;20098;-67
2021/11/15 10:24:06;;;;;;;14.32;6.05;;;;;;;7.85;84.53;99352.06;5068780;28;20024;-69
2021/11/15 10:26:41;;;;;;;15.80;6.63;;;;;;;7.69;85.65;99353.78;5076325;28;20024;-69
2021/11/15 10:29:10;;;;;;;16.90;7.60;;;;;;;7.81;84.86;99356.16;5087066;28;20020;-70
2021/11/15 10:31:40;;;;;;;;;;;;;;;7.73;85.13;99345.38;5080035;28;20025;-70
2021/11/15 10:34:09;;;;;;;17.25;6.93;;;;;;;7.68;85.69;99349.44;5060788;28;19954;-70
2021/11/15 10:36:53;;;;;;;14.73;6.78;;;;;;;7.63;85.99;99350.97;5070564;28;20032;-73
2021/11/15 10:39:22;;;;;;;15.10;6.72;;;;;;;7.65;85.35;99343.53;5072070;28;20472;-71
2021/11/15 10:42:13;;;;;;;;;;;;;;;7.76;85.87;99345.03;5074054;28;20102;-67
2021/11/15 10:45:31;;;;;;;15.95;6.50;;;;;;;7.67;85.26;99330.72;5070660;28;19940;-68
2021/11/15 10:48:01;;;;;;;15.40;6.38;;;;;;;7.76;85.32;99345.88;5031613;28;20055;-69
2021/11/15 10:50:30;;;;;;;13.80;6.90;;;;;;;7.73;85.67;99346.22;5072940;28;20021;-71
2021/11/15 10:53:01;;;;;;;14.00;6.75;;;;;;;7.79;85.65;99344.69;5073800;28;20070;-71
2021/11/15 10:55:30;;;;;;;14.27;7.13;;;;;;;7.76;85.22;99328.88;5071517;28;20028;-70
2021/11/15 10:57:56;;;;;;;14.18;7.03;;;;;;;7.72;84.97;99343.69;5073199;28;20034;-69
2021/11/15 11:00:33;;;;;;;17.65;7.10;;;;;;;7.61;85.53;99318.81;5072144;28;20117;-70
2021/11/15 11:03:05;;;;;;;16.15;7.30;;;;;;;7.61;85.46;99332.25;5073365;28;20494;-69
2021/11/15 11:05:31;;;;;;;15.65;7.18;;;;;;;7.71;84.58;99339.34;5075216;28;20055;-70
2021/11/15 11:08:02;;;;;;;16.85;7.57;;;;;;;7.83;84.23;99335.25;5075971;28;20024;-69
2021/11/15 11:10:30;;;;;;;17.40;7.00;;;;;;;7.78;84.62;99337.59;5078699;28;20060;-70
2021/11/15 11:13:02;;;;;;;18.23;7.40;;;;;;;7.65;85.22;99314.75;5080396;28;20024;-69
2021/11/15 11:15:43;;;;;;;15.75;7.25;;;;;;;7.77;83.74;99300.91;5089260;28;20031;-70
2021/11/15 11:18:48;;;;;;;15.35;7.30;;;;;;;7.85;84.40;99325.97;5064774;28;20025;-69
2021/11/15 11:26:35;;;;;;;14.73;7.38;;;;;;;7.84;84.32;99307.31;5072089;28;20028;-70
2021/11/15 11:29:13;;;;;;;17.50;7.40;;;;;;;7.88;83.68;99317.53;5065875;28;20016;-70
2021/11/15 11:31:42;;;;;;;15.63;7.63;;;;;;;7.87;84.08;99325.81;5072880;28;20021;-69
2021/11/15 11:34:08;;;;;;;20.63;7.50;;;;;;;7.84;83.21;99312.69;5071215;28;20059;-71
2021/11/15 11:36:34;;;;;;;16.50;7.60;;;;;;;7.94;83.02;99329.50;5072910;28;20052;-69
2021/11/15 11:39:00;;;;;;;18.90;7.97;;;;;;;7.98;82.52;99327.28;5072470;28;20107;-68
2021/11/15 11:41:25;;;;;;;13.30;6.38;;;;;;;8.07;82.54;99321.69;5071437;28;20445;-68